sensor_id;sensor_type;location;lat;lon;timestamp;P1;durP1;ratioP1;P2;durP2;ratioP2
14381;SDS011;7275;50.328;8.720;2023-10-19T00:02:05;6.10;;;5.57;;
14381;SDS011;7275;50.328;8.720;2023-10-19T00:04:33;6.30;;;5.70;;
14381;SDS011;7275;50.328;8.720;2023-10-19T00:07:02;7.80;;;5.77;;
14381;SDS011;7275;50.328;8.720;2023-10-19T00:09:31;6.27;;;5.57;;
14381;SDS011;7275;50.328;8.720;2023-10-19T00:12:04;6.60;;;5.90;;
14381;SDS011;7275;50.328;8.720;2023-10-19T00:14:35;6.87;;;6.17;;
14381;SDS011;7275;50.328;8.720;2023-10-19T00:17:02;6.53;;;5.93;;
14381;SDS011;7275;50.328;8.720;2023-10-19T00:19:32;7.03;;;6.33;;
14381;SDS011;7275;50.328;8.720;2023-10-19T00:22:06;7.77;;;6.27;;
14381;SDS011;7275;50.328;8.720;2023-10-19T00:24:42;6.90;;;6.20;;
14381;SDS011;7275;50.328;8.720;2023-10-19T00:27:11;7.33;;;6.63;;
14381;SDS011;7275;50.328;8.720;2023-10-19T00:29:42;8.23;;;7.40;;
14381;SDS011;7275;50.328;8.720;2023-10-19T00:32:15;7.53;;;6.77;;
14381;SDS011;7275;50.328;8.720;2023-10-19T00:34:44;8.03;;;7.17;;
14381;SDS011;7275;50.328;8.720;2023-10-19T00:37:18;7.97;;;7.20;;
14381;SDS011;7275;50.328;8.720;2023-10-19T00:39:53;8.57;;;7.67;;
14381;SDS011;7275;50.328;8.720;2023-10-19T00:42:23;8.47;;;7.50;;
14381;SDS011;7275;50.328;8.720;2023-10-19T00:44:55;7.83;;;7.13;;
14381;SDS011;7275;50.328;8.720;2023-10-19T00:47:30;7.73;;;7.03;;
14381;SDS011;7275;50.328;8.720;2023-10-19T00:50:06;8.27;;;7.47;;
14381;SDS011;7275;50.328;8.720;2023-10-19T00:52:41;8.87;;;7.07;;
14381;SDS011;7275;50.328;8.720;2023-10-19T00:55:16;7.70;;;6.87;;
14381;SDS011;7275;50.328;8.720;2023-10-19T00:57:53;7.30;;;6.60;;
14381;SDS011;7275;50.328;8.720;2023-10-19T01:00:23;8.13;;;7.33;;
14381;SDS011;7275;50.328;8.720;2023-10-19T01:02:57;7.87;;;7.10;;
14381;SDS011;7275;50.328;8.720;2023-10-19T01:05:31;8.00;;;7.20;;
14381;SDS011;7275;50.328;8.720;2023-10-19T01:08:02;6.87;;;6.27;;
14381;SDS011;7275;50.328;8.720;2023-10-19T01:10:40;7.63;;;6.93;;
14381;SDS011;7275;50.328;8.720;2023-10-19T01:13:13;7.83;;;7.13;;
14381;SDS011;7275;50.328;8.720;2023-10-19T01:15:42;7.80;;;7.00;;
14381;SDS011;7275;50.328;8.720;2023-10-19T01:18:15;7.80;;;7.03;;
14381;SDS011;7275;50.328;8.720;2023-10-19T01:20:44;7.67;;;6.97;;
14381;SDS011;7275;50.328;8.720;2023-10-19T01:23:18;6.47;;;5.87;;
14381;SDS011;7275;50.328;8.720;2023-10-19T01:25:53;7.97;;;7.27;;
14381;SDS011;7275;50.328;8.720;2023-10-19T01:28:31;8.33;;;7.40;;
14381;SDS011;7275;50.328;8.720;2023-10-19T01:31:10;8.37;;;7.57;;
14381;SDS011;7275;50.328;8.720;2023-10-19T01:33:43;8.37;;;7.57;;
14381;SDS011;7275;50.328;8.720;2023-10-19T01:36:12;8.50;;;7.70;;
14381;SDS011;7275;50.328;8.720;2023-10-19T01:38:52;8.60;;;7.80;;
14381;SDS011;7275;50.328;8.720;2023-10-19T01:41:21;8.43;;;7.63;;
14381;SDS011;7275;50.328;8.720;2023-10-19T01:43:50;8.70;;;7.90;;
14381;SDS011;7275;50.328;8.720;2023-10-19T01:46:20;9.37;;;8.47;;
14381;SDS011;7275;50.328;8.720;2023-10-19T01:48:55;8.57;;;7.77;;
14381;SDS011;7275;50.328;8.720;2023-10-19T01:51:22;8.80;;;7.80;;
14381;SDS011;7275;50.328;8.720;2023-10-19T01:53:54;9.00;;;8.10;;
14381;SDS011;7275;50.328;8.720;2023-10-19T01:56:21;8.67;;;7.87;;
14381;SDS011;7275;50.328;8.720;2023-10-19T01:58:50;10.70;;;9.70;;
14381;SDS011;7275;50.328;8.720;2023-10-19T02:01:18;9.53;;;8.60;;
14381;SDS011;7275;50.328;8.720;2023-10-19T02:03:56;9.33;;;8.50;;
14381;SDS011;7275;50.328;8.720;2023-10-19T02:06:25;9.47;;;8.57;;
14381;SDS011;7275;50.328;8.720;2023-10-19T02:09:05;10.10;;;9.10;;
14381;SDS011;7275;50.328;8.720;2023-10-19T02:11:43;9.50;;;8.60;;
14381;SDS011;7275;50.328;8.720;2023-10-19T02:14:12;9.60;;;8.70;;
14381;SDS011;7275;50.328;8.720;2023-10-19T02:16:41;9.93;;;9.03;;
14381;SDS011;7275;50.328;8.720;2023-10-19T02:19:09;9.27;;;8.37;;
14381;SDS011;7275;50.328;8.720;2023-10-19T02:21:37;9.83;;;8.93;;
14381;SDS011;7275;50.328;8.720;2023-10-19T02:24:07;9.97;;;9.07;;
14381;SDS011;7275;50.328;8.720;2023-10-19T02:26:35;10.60;;;9.33;;
14381;SDS011;7275;50.328;8.720;2023-10-19T02:29:03;9.93;;;8.93;;
14381;SDS011;7275;50.328;8.720;2023-10-19T02:31:33;11.07;;;9.97;;
14381;SDS011;7275;50.328;8.720;2023-10-19T02:34:00;11.17;;;10.17;;
14381;SDS011;7275;50.328;8.720;2023-10-19T02:36:29;10.97;;;9.87;;
14381;SDS011;7275;50.328;8.720;2023-10-19T02:38:57;11.00;;;9.90;;
14381;SDS011;7275;50.328;8.720;2023-10-19T02:41:27;11.50;;;10.33;;
14381;SDS011;7275;50.328;8.720;2023-10-19T02:43:54;11.70;;;10.60;;
14381;SDS011;7275;50.328;8.720;2023-10-19T02:46:31;11.40;;;10.20;;
14381;SDS011;7275;50.328;8.720;2023-10-19T02:49:00;12.33;;;11.13;;
14381;SDS011;7275;50.328;8.720;2023-10-19T02:51:29;12.03;;;10.80;;
14381;SDS011;7275;50.328;8.720;2023-10-19T02:53:56;12.83;;;11.53;;
14381;SDS011;7275;50.328;8.720;2023-10-19T02:56:27;13.37;;;12.07;;
14381;SDS011;7275;50.328;8.720;2023-10-19T02:58:56;13.10;;;11.80;;
14381;SDS011;7275;50.328;8.720;2023-10-19T03:01:30;12.97;;;11.67;;
14381;SDS011;7275;50.328;8.720;2023-10-19T03:04:00;13.90;;;12.50;;
14381;SDS011;7275;50.328;8.720;2023-10-19T03:06:28;13.67;;;12.37;;
14381;SDS011;7275;50.328;8.720;2023-10-19T03:08:58;13.13;;;11.77;;
14381;SDS011;7275;50.328;8.720;2023-10-19T03:11:28;12.70;;;11.40;;
14381;SDS011;7275;50.328;8.720;2023-10-19T03:13:56;14.10;;;12.63;;
14381;SDS011;7275;50.328;8.720;2023-10-19T03:16:23;14.03;;;12.47;;
14381;SDS011;7275;50.328;8.720;2023-10-19T03:18:56;14.53;;;13.03;;
14381;SDS011;7275;50.328;8.720;2023-10-19T03:21:23;14.97;;;13.47;;
14381;SDS011;7275;50.328;8.720;2023-10-19T03:23:53;15.07;;;13.20;;
14381;SDS011;7275;50.328;8.720;2023-10-19T03:26:22;15.27;;;12.97;;
14381;SDS011;7275;50.328;8.720;2023-10-19T03:28:55;14.33;;;12.80;;
14381;SDS011;7275;50.328;8.720;2023-10-19T03:31:22;16.97;;;13.83;;
14381;SDS011;7275;50.328;8.720;2023-10-19T03:33:51;15.07;;;13.47;;
14381;SDS011;7275;50.328;8.720;2023-10-19T03:36:21;17.20;;;13.87;;
14381;SDS011;7275;50.328;8.720;2023-10-19T03:38:50;16.77;;;13.80;;
14381;SDS011;7275;50.328;8.720;2023-10-19T03:41:19;16.50;;;14.40;;
14381;SDS011;7275;50.328;8.720;2023-10-19T03:43:51;15.70;;;14.00;;
14381;SDS011;7275;50.328;8.720;2023-10-19T03:46:21;16.53;;;13.80;;
14381;SDS011;7275;50.328;8.720;2023-10-19T03:48:55;16.17;;;14.23;;
14381;SDS011;7275;50.328;8.720;2023-10-19T03:51:30;19.40;;;15.33;;
14381;SDS011;7275;50.328;8.720;2023-10-19T03:54:06;17.97;;;15.03;;
14381;SDS011;7275;50.328;8.720;2023-10-19T03:56:48;18.50;;;14.97;;
14381;SDS011;7275;50.328;8.720;2023-10-19T03:59:16;19.50;;;15.50;;
14381;SDS011;7275;50.328;8.720;2023-10-19T04:01:45;19.80;;;15.47;;
14381;SDS011;7275;50.328;8.720;2023-10-19T04:04:12;20.47;;;15.97;;
14381;SDS011;7275;50.328;8.720;2023-10-19T04:06:42;23.13;;;17.17;;
14381;SDS011;7275;50.328;8.720;2023-10-19T04:09:13;27.33;;;16.30;;
14381;SDS011;7275;50.328;8.720;2023-10-19T04:11:43;24.67;;;16.80;;
14381;SDS011;7275;50.328;8.720;2023-10-19T04:14:18;25.90;;;16.77;;
14381;SDS011;7275;50.328;8.720;2023-10-19T04:16:49;28.43;;;17.33;;
14381;SDS011;7275;50.328;8.720;2023-10-19T04:19:16;27.17;;;16.20;;
14381;SDS011;7275;50.328;8.720;2023-10-19T04:21:44;24.63;;;15.80;;
14381;SDS011;7275;50.328;8.720;2023-10-19T04:24:13;32.27;;;16.40;;
14381;SDS011;7275;50.328;8.720;2023-10-19T04:26:41;31.10;;;16.70;;
14381;SDS011;7275;50.328;8.720;2023-10-19T04:29:08;38.80;;;17.33;;
14381;SDS011;7275;50.328;8.720;2023-10-19T04:31:37;29.10;;;16.27;;
14381;SDS011;7275;50.328;8.720;2023-10-19T04:34:17;33.23;;;17.27;;
14381;SDS011;7275;50.328;8.720;2023-10-19T04:36:47;40.10;;;16.67;;
14381;SDS011;7275;50.328;8.720;2023-10-19T04:39:14;35.70;;;17.07;;
14381;SDS011;7275;50.328;8.720;2023-10-19T04:41:45;45.87;;;16.90;;
14381;SDS011;7275;50.328;8.720;2023-10-19T04:44:14;51.30;;;17.43;;
14381;SDS011;7275;50.328;8.720;2023-10-19T04:46:43;40.10;;;17.13;;
14381;SDS011;7275;50.328;8.720;2023-10-19T04:49:11;49.70;;;18.03;;
14381;SDS011;7275;50.328;8.720;2023-10-19T04:51:40;28.57;;;17.20;;
14381;SDS011;7275;50.328;8.720;2023-10-19T04:54:09;45.40;;;18.13;;
14381;SDS011;7275;50.328;8.720;2023-10-19T04:56:37;43.43;;;18.00;;
14381;SDS011;7275;50.328;8.720;2023-10-19T04:59:04;46.63;;;17.03;;
14381;SDS011;7275;50.328;8.720;2023-10-19T05:01:32;49.50;;;18.77;;
14381;SDS011;7275;50.328;8.720;2023-10-19T05:04:00;54.90;;;18.57;;
14381;SDS011;7275;50.328;8.720;2023-10-19T05:06:28;49.03;;;18.13;;
14381;SDS011;7275;50.328;8.720;2023-10-19T05:08:57;50.20;;;19.77;;
14381;SDS011;7275;50.328;8.720;2023-10-19T05:11:24;92.30;;;20.50;;
14381;SDS011;7275;50.328;8.720;2023-10-19T05:13:52;55.00;;;18.30;;
14381;SDS011;7275;50.328;8.720;2023-10-19T05:16:19;39.63;;;18.40;;
14381;SDS011;7275;50.328;8.720;2023-10-19T05:18:47;56.60;;;17.43;;
14381;SDS011;7275;50.328;8.720;2023-10-19T05:21:14;48.30;;;19.87;;
14381;SDS011;7275;50.328;8.720;2023-10-19T05:23:42;40.10;;;18.50;;
14381;SDS011;7275;50.328;8.720;2023-10-19T05:26:11;74.57;;;18.90;;
14381;SDS011;7275;50.328;8.720;2023-10-19T05:28:40;60.20;;;19.20;;
14381;SDS011;7275;50.328;8.720;2023-10-19T05:31:09;52.13;;;18.93;;
14381;SDS011;7275;50.328;8.720;2023-10-19T05:33:38;56.57;;;18.87;;
14381;SDS011;7275;50.328;8.720;2023-10-19T05:36:06;53.27;;;18.77;;
14381;SDS011;7275;50.328;8.720;2023-10-19T05:38:34;59.20;;;18.87;;
14381;SDS011;7275;50.328;8.720;2023-10-19T05:41:01;55.57;;;19.00;;
14381;SDS011;7275;50.328;8.720;2023-10-19T05:43:31;61.93;;;19.00;;
14381;SDS011;7275;50.328;8.720;2023-10-19T05:45:59;95.93;;;20.27;;
14381;SDS011;7275;50.328;8.720;2023-10-19T05:48:27;113.13;;;22.33;;
14381;SDS011;7275;50.328;8.720;2023-10-19T05:50:55;67.83;;;20.77;;
14381;SDS011;7275;50.328;8.720;2023-10-19T05:53:22;80.87;;;20.13;;
14381;SDS011;7275;50.328;8.720;2023-10-19T05:55:50;48.40;;;19.50;;
14381;SDS011;7275;50.328;8.720;2023-10-19T05:58:17;82.57;;;21.30;;
14381;SDS011;7275;50.328;8.720;2023-10-19T06:00:47;47.17;;;20.60;;
14381;SDS011;7275;50.328;8.720;2023-10-19T06:03:18;49.70;;;21.70;;
14381;SDS011;7275;50.328;8.720;2023-10-19T06:05:46;96.03;;;21.60;;
14381;SDS011;7275;50.328;8.720;2023-10-19T06:08:13;57.83;;;20.67;;
14381;SDS011;7275;50.328;8.720;2023-10-19T06:10:41;64.90;;;20.00;;
14381;SDS011;7275;50.328;8.720;2023-10-19T06:13:09;82.30;;;19.33;;
14381;SDS011;7275;50.328;8.720;2023-10-19T06:15:36;78.70;;;19.77;;
14381;SDS011;7275;50.328;8.720;2023-10-19T06:18:06;71.77;;;20.67;;
14381;SDS011;7275;50.328;8.720;2023-10-19T06:20:34;66.53;;;19.13;;
14381;SDS011;7275;50.328;8.720;2023-10-19T06:23:02;84.03;;;18.97;;
14381;SDS011;7275;50.328;8.720;2023-10-19T06:25:32;81.80;;;19.60;;
14381;SDS011;7275;50.328;8.720;2023-10-19T06:28:01;93.97;;;20.30;;
14381;SDS011;7275;50.328;8.720;2023-10-19T06:30:30;64.73;;;18.67;;
14381;SDS011;7275;50.328;8.720;2023-10-19T06:32:58;115.07;;;20.73;;
14381;SDS011;7275;50.328;8.720;2023-10-19T06:35:29;116.50;;;20.63;;
14381;SDS011;7275;50.328;8.720;2023-10-19T06:37:59;111.03;;;19.53;;
14381;SDS011;7275;50.328;8.720;2023-10-19T06:40:27;105.70;;;19.60;;
14381;SDS011;7275;50.328;8.720;2023-10-19T06:42:55;84.13;;;20.33;;
14381;SDS011;7275;50.328;8.720;2023-10-19T06:45:23;92.43;;;20.13;;
14381;SDS011;7275;50.328;8.720;2023-10-19T06:47:52;82.70;;;20.20;;
14381;SDS011;7275;50.328;8.720;2023-10-19T06:50:21;76.00;;;20.20;;
14381;SDS011;7275;50.328;8.720;2023-10-19T06:52:51;57.70;;;20.53;;
14381;SDS011;7275;50.328;8.720;2023-10-19T06:55:20;70.57;;;20.40;;
14381;SDS011;7275;50.328;8.720;2023-10-19T06:57:50;65.20;;;21.57;;
14381;SDS011;7275;50.328;8.720;2023-10-19T07:00:19;48.23;;;20.37;;
14381;SDS011;7275;50.328;8.720;2023-10-19T07:02:48;59.97;;;20.77;;
14381;SDS011;7275;50.328;8.720;2023-10-19T07:05:18;66.97;;;21.37;;
14381;SDS011;7275;50.328;8.720;2023-10-19T07:07:48;59.50;;;21.03;;
14381;SDS011;7275;50.328;8.720;2023-10-19T07:10:19;35.80;;;21.03;;
14381;SDS011;7275;50.328;8.720;2023-10-19T07:12:50;39.27;;;20.33;;
14381;SDS011;7275;50.328;8.720;2023-10-19T07:15:21;29.10;;;21.20;;
14381;SDS011;7275;50.328;8.720;2023-10-19T07:17:51;29.57;;;21.03;;
14381;SDS011;7275;50.328;8.720;2023-10-19T07:20:20;28.87;;;20.33;;
14381;SDS011;7275;50.328;8.720;2023-10-19T07:22:55;28.60;;;20.60;;
14381;SDS011;7275;50.328;8.720;2023-10-19T07:25:27;29.13;;;20.47;;
14381;SDS011;7275;50.328;8.720;2023-10-19T07:27:55;25.97;;;18.70;;
14381;SDS011;7275;50.328;8.720;2023-10-19T07:30:26;25.67;;;18.93;;
14381;SDS011;7275;50.328;8.720;2023-10-19T07:32:54;28.97;;;20.60;;
14381;SDS011;7275;50.328;8.720;2023-10-19T07:35:25;28.20;;;19.80;;
14381;SDS011;7275;50.328;8.720;2023-10-19T07:37:53;27.93;;;19.97;;
14381;SDS011;7275;50.328;8.720;2023-10-19T07:40:23;26.00;;;19.27;;
14381;SDS011;7275;50.328;8.720;2023-10-19T07:42:52;29.60;;;20.30;;
14381;SDS011;7275;50.328;8.720;2023-10-19T07:45:21;33.53;;;21.60;;
14381;SDS011;7275;50.328;8.720;2023-10-19T07:47:48;29.07;;;21.23;;
14381;SDS011;7275;50.328;8.720;2023-10-19T07:50:17;32.77;;;21.33;;
14381;SDS011;7275;50.328;8.720;2023-10-19T07:52:45;38.53;;;22.43;;
14381;SDS011;7275;50.328;8.720;2023-10-19T07:55:15;38.23;;;21.53;;
14381;SDS011;7275;50.328;8.720;2023-10-19T07:57:43;69.40;;;22.83;;
14381;SDS011;7275;50.328;8.720;2023-10-19T08:00:13;39.20;;;21.23;;
14381;SDS011;7275;50.328;8.720;2023-10-19T08:02:41;42.57;;;20.60;;
14381;SDS011;7275;50.328;8.720;2023-10-19T08:05:11;50.77;;;22.17;;
14381;SDS011;7275;50.328;8.720;2023-10-19T08:07:39;55.80;;;22.87;;
14381;SDS011;7275;50.328;8.720;2023-10-19T08:10:08;47.23;;;23.10;;
14381;SDS011;7275;50.328;8.720;2023-10-19T08:12:38;81.83;;;22.03;;
14381;SDS011;7275;50.328;8.720;2023-10-19T08:15:08;75.40;;;22.93;;
14381;SDS011;7275;50.328;8.720;2023-10-19T08:17:38;61.07;;;21.80;;
14381;SDS011;7275;50.328;8.720;2023-10-19T08:20:07;66.03;;;23.37;;
14381;SDS011;7275;50.328;8.720;2023-10-19T08:22:41;69.03;;;23.47;;
14381;SDS011;7275;50.328;8.720;2023-10-19T08:25:09;71.43;;;22.67;;
14381;SDS011;7275;50.328;8.720;2023-10-19T08:27:38;64.73;;;22.33;;
14381;SDS011;7275;50.328;8.720;2023-10-19T08:30:07;74.27;;;22.67;;
14381;SDS011;7275;50.328;8.720;2023-10-19T08:32:36;91.03;;;22.50;;
14381;SDS011;7275;50.328;8.720;2023-10-19T08:35:05;75.03;;;22.33;;
14381;SDS011;7275;50.328;8.720;2023-10-19T08:37:33;90.13;;;22.30;;
14381;SDS011;7275;50.328;8.720;2023-10-19T08:40:02;90.13;;;22.57;;
14381;SDS011;7275;50.328;8.720;2023-10-19T08:42:30;55.93;;;20.77;;
14381;SDS011;7275;50.328;8.720;2023-10-19T08:44:58;66.77;;;22.00;;
14381;SDS011;7275;50.328;8.720;2023-10-19T08:47:26;85.30;;;21.27;;
14381;SDS011;7275;50.328;8.720;2023-10-19T08:49:54;112.87;;;22.47;;
14381;SDS011;7275;50.328;8.720;2023-10-19T08:52:22;87.00;;;21.93;;
14381;SDS011;7275;50.328;8.720;2023-10-19T08:54:52;69.80;;;21.40;;
14381;SDS011;7275;50.328;8.720;2023-10-19T08:57:20;87.53;;;22.33;;
14381;SDS011;7275;50.328;8.720;2023-10-19T08:59:48;74.30;;;21.83;;
14381;SDS011;7275;50.328;8.720;2023-10-19T09:02:16;58.03;;;20.73;;
14381;SDS011;7275;50.328;8.720;2023-10-19T09:04:44;65.73;;;21.60;;
14381;SDS011;7275;50.328;8.720;2023-10-19T09:07:16;91.83;;;22.10;;
14381;SDS011;7275;50.328;8.720;2023-10-19T09:09:46;87.10;;;22.17;;
14381;SDS011;7275;50.328;8.720;2023-10-19T09:12:15;96.57;;;23.43;;
14381;SDS011;7275;50.328;8.720;2023-10-19T09:14:45;70.40;;;22.43;;
14381;SDS011;7275;50.328;8.720;2023-10-19T09:17:13;83.03;;;21.40;;
14381;SDS011;7275;50.328;8.720;2023-10-19T09:19:41;52.80;;;20.27;;
14381;SDS011;7275;50.328;8.720;2023-10-19T09:22:10;72.80;;;20.90;;
14381;SDS011;7275;50.328;8.720;2023-10-19T09:24:46;63.53;;;21.60;;
14381;SDS011;7275;50.328;8.720;2023-10-19T09:27:16;66.77;;;21.60;;
14381;SDS011;7275;50.328;8.720;2023-10-19T09:29:44;63.33;;;21.07;;
14381;SDS011;7275;50.328;8.720;2023-10-19T09:32:11;83.13;;;22.07;;
14381;SDS011;7275;50.328;8.720;2023-10-19T09:34:41;78.17;;;21.57;;
14381;SDS011;7275;50.328;8.720;2023-10-19T09:37:10;75.10;;;21.97;;
14381;SDS011;7275;50.328;8.720;2023-10-19T09:39:39;72.10;;;20.87;;
14381;SDS011;7275;50.328;8.720;2023-10-19T09:42:11;55.33;;;22.13;;
14381;SDS011;7275;50.328;8.720;2023-10-19T09:44:43;79.53;;;21.90;;
14381;SDS011;7275;50.328;8.720;2023-10-19T09:47:12;85.70;;;20.87;;
14381;SDS011;7275;50.328;8.720;2023-10-19T09:49:42;68.80;;;21.67;;
14381;SDS011;7275;50.328;8.720;2023-10-19T09:52:11;57.87;;;22.20;;
14381;SDS011;7275;50.328;8.720;2023-10-19T09:54:45;74.53;;;21.57;;
14381;SDS011;7275;50.328;8.720;2023-10-19T09:57:22;57.73;;;21.30;;
14381;SDS011;7275;50.328;8.720;2023-10-19T09:59:59;82.57;;;24.03;;
14381;SDS011;7275;50.328;8.720;2023-10-19T10:02:34;69.70;;;20.80;;
14381;SDS011;7275;50.328;8.720;2023-10-19T10:05:03;96.77;;;23.20;;
14381;SDS011;7275;50.328;8.720;2023-10-19T10:07:32;75.53;;;21.30;;
14381;SDS011;7275;50.328;8.720;2023-10-19T10:10:07;60.77;;;19.33;;
14381;SDS011;7275;50.328;8.720;2023-10-19T10:12:37;40.83;;;19.97;;
14381;SDS011;7275;50.328;8.720;2023-10-19T10:15:05;46.40;;;21.93;;
14381;SDS011;7275;50.328;8.720;2023-10-19T10:17:34;64.27;;;20.50;;
14381;SDS011;7275;50.328;8.720;2023-10-19T10:23:16;34.37;;;21.03;;
14381;SDS011;7275;50.328;8.720;2023-10-19T10:25:47;55.47;;;21.53;;
14381;SDS011;7275;50.328;8.720;2023-10-19T10:28:18;45.83;;;20.97;;
14381;SDS011;7275;50.328;8.720;2023-10-19T10:31:07;38.87;;;21.90;;
14381;SDS011;7275;50.328;8.720;2023-10-19T10:33:39;39.23;;;21.97;;
14381;SDS011;7275;50.328;8.720;2023-10-19T10:36:11;56.63;;;22.30;;
14381;SDS011;7275;50.328;8.720;2023-10-19T10:38:39;33.97;;;22.67;;
14381;SDS011;7275;50.328;8.720;2023-10-19T11:34:07;32.70;;;24.20;;
14381;SDS011;7275;50.328;8.720;2023-10-19T11:36:35;33.50;;;24.23;;
14381;SDS011;7275;50.328;8.720;2023-10-19T11:39:03;34.07;;;24.20;;
14381;SDS011;7275;50.328;8.720;2023-10-19T11:41:31;33.20;;;24.07;;
14381;SDS011;7275;50.328;8.720;2023-10-19T11:43:59;35.53;;;25.37;;
14381;SDS011;7275;50.328;8.720;2023-10-19T11:46:26;32.27;;;23.50;;
14381;SDS011;7275;50.328;8.720;2023-10-19T11:48:55;30.53;;;23.27;;
14381;SDS011;7275;50.328;8.720;2023-10-19T11:51:24;31.47;;;22.70;;
14381;SDS011;7275;50.328;8.720;2023-10-19T11:53:52;32.57;;;24.67;;
14381;SDS011;7275;50.328;8.720;2023-10-19T11:56:19;30.70;;;23.23;;
14381;SDS011;7275;50.328;8.720;2023-10-19T11:58:47;32.43;;;24.60;;
14381;SDS011;7275;50.328;8.720;2023-10-19T12:01:15;33.93;;;24.20;;
14381;SDS011;7275;50.328;8.720;2023-10-19T12:03:44;31.33;;;22.47;;
14381;SDS011;7275;50.328;8.720;2023-10-19T12:06:13;32.93;;;24.03;;
14381;SDS011;7275;50.328;8.720;2023-10-19T12:08:46;36.23;;;24.63;;
14381;SDS011;7275;50.328;8.720;2023-10-19T12:11:14;34.53;;;25.57;;
14381;SDS011;7275;50.328;8.720;2023-10-19T12:13:43;33.90;;;24.23;;
14381;SDS011;7275;50.328;8.720;2023-10-19T12:16:10;36.53;;;24.97;;
14381;SDS011;7275;50.328;8.720;2023-10-19T12:18:39;34.03;;;25.03;;
14381;SDS011;7275;50.328;8.720;2023-10-19T12:21:08;34.23;;;24.27;;
14381;SDS011;7275;50.328;8.720;2023-10-19T12:23:38;35.27;;;24.63;;
14381;SDS011;7275;50.328;8.720;2023-10-19T12:26:08;31.00;;;22.83;;
14381;SDS011;7275;50.328;8.720;2023-10-19T12:28:38;30.10;;;21.40;;
14381;SDS011;7275;50.328;8.720;2023-10-19T12:31:07;30.57;;;22.10;;
14381;SDS011;7275;50.328;8.720;2023-10-19T12:33:36;26.23;;;18.90;;
14381;SDS011;7275;50.328;8.720;2023-10-19T12:36:04;30.87;;;19.33;;
14381;SDS011;7275;50.328;8.720;2023-10-19T12:38:50;29.73;;;21.50;;
14381;SDS011;7275;50.328;8.720;2023-10-19T12:41:19;26.97;;;19.83;;
14381;SDS011;7275;50.328;8.720;2023-10-19T12:43:48;25.77;;;19.73;;
14381;SDS011;7275;50.328;8.720;2023-10-19T12:46:18;23.30;;;18.73;;
14381;SDS011;7275;50.328;8.720;2023-10-19T12:48:48;23.30;;;18.13;;
14381;SDS011;7275;50.328;8.720;2023-10-19T12:51:15;24.90;;;19.10;;
14381;SDS011;7275;50.328;8.720;2023-10-19T12:53:49;24.00;;;18.33;;
14381;SDS011;7275;50.328;8.720;2023-10-19T12:56:17;23.93;;;18.47;;
14381;SDS011;7275;50.328;8.720;2023-10-19T12:58:46;21.87;;;17.97;;
14381;SDS011;7275;50.328;8.720;2023-10-19T13:01:16;22.97;;;17.20;;
14381;SDS011;7275;50.328;8.720;2023-10-19T13:03:45;24.27;;;18.60;;
14381;SDS011;7275;50.328;8.720;2023-10-19T13:06:13;21.87;;;17.53;;
14381;SDS011;7275;50.328;8.720;2023-10-19T13:08:41;23.40;;;17.57;;
14381;SDS011;7275;50.328;8.720;2023-10-19T13:11:09;24.47;;;18.53;;
14381;SDS011;7275;50.328;8.720;2023-10-19T13:13:44;24.03;;;18.17;;
14381;SDS011;7275;50.328;8.720;2023-10-19T13:16:13;21.47;;;16.47;;
14381;SDS011;7275;50.328;8.720;2023-10-19T13:18:41;17.90;;;14.80;;
14381;SDS011;7275;50.328;8.720;2023-10-19T13:21:09;16.73;;;13.40;;
14381;SDS011;7275;50.328;8.720;2023-10-19T13:23:38;16.47;;;13.50;;
14381;SDS011;7275;50.328;8.720;2023-10-19T13:26:06;16.50;;;13.20;;
14381;SDS011;7275;50.328;8.720;2023-10-19T13:28:43;14.47;;;12.97;;
14381;SDS011;7275;50.328;8.720;2023-10-19T13:31:13;15.63;;;12.90;;
14381;SDS011;7275;50.328;8.720;2023-10-19T13:33:41;17.37;;;13.60;;
14381;SDS011;7275;50.328;8.720;2023-10-19T13:36:11;16.30;;;13.50;;
14381;SDS011;7275;50.328;8.720;2023-10-19T13:38:40;16.47;;;13.50;;
14381;SDS011;7275;50.328;8.720;2023-10-19T13:41:08;16.03;;;12.93;;
14381;SDS011;7275;50.328;8.720;2023-10-19T13:43:37;16.43;;;13.00;;
14381;SDS011;7275;50.328;8.720;2023-10-19T13:46:06;16.43;;;13.77;;
14381;SDS011;7275;50.328;8.720;2023-10-19T13:48:35;17.77;;;14.27;;
14381;SDS011;7275;50.328;8.720;2023-10-19T13:51:05;15.37;;;13.63;;
14381;SDS011;7275;50.328;8.720;2023-10-19T13:53:38;17.73;;;13.53;;
14381;SDS011;7275;50.328;8.720;2023-10-19T13:56:07;17.90;;;13.33;;
14381;SDS011;7275;50.328;8.720;2023-10-19T13:58:36;15.87;;;13.30;;
14381;SDS011;7275;50.328;8.720;2023-10-19T14:01:06;15.03;;;13.27;;
14381;SDS011;7275;50.328;8.720;2023-10-19T14:03:37;14.50;;;12.60;;
14381;SDS011;7275;50.328;8.720;2023-10-19T14:06:05;18.23;;;13.13;;
14381;SDS011;7275;50.328;8.720;2023-10-19T14:08:39;16.10;;;13.20;;
14381;SDS011;7275;50.328;8.720;2023-10-19T14:11:06;15.50;;;13.80;;
14381;SDS011;7275;50.328;8.720;2023-10-19T14:13:35;18.07;;;13.27;;
14381;SDS011;7275;50.328;8.720;2023-10-19T14:16:04;15.73;;;14.00;;
14381;SDS011;7275;50.328;8.720;2023-10-19T14:18:35;15.63;;;13.63;;
14381;SDS011;7275;50.328;8.720;2023-10-19T14:21:10;24.17;;;15.57;;
14381;SDS011;7275;50.328;8.720;2023-10-19T14:23:40;17.30;;;13.20;;
14381;SDS011;7275;50.328;8.720;2023-10-19T14:26:08;18.60;;;14.10;;
14381;SDS011;7275;50.328;8.720;2023-10-19T14:28:36;15.87;;;14.17;;
14381;SDS011;7275;50.328;8.720;2023-10-19T14:31:04;14.93;;;13.17;;
14381;SDS011;7275;50.328;8.720;2023-10-19T14:33:33;17.33;;;14.20;;
14381;SDS011;7275;50.328;8.720;2023-10-19T14:36:03;17.40;;;13.97;;
14381;SDS011;7275;50.328;8.720;2023-10-19T14:38:31;16.17;;;13.33;;
14381;SDS011;7275;50.328;8.720;2023-10-19T14:40:59;16.00;;;13.57;;
14381;SDS011;7275;50.328;8.720;2023-10-19T14:43:27;17.87;;;13.77;;
14381;SDS011;7275;50.328;8.720;2023-10-19T14:45:55;18.10;;;13.83;;
14381;SDS011;7275;50.328;8.720;2023-10-19T14:48:24;17.57;;;13.77;;
14381;SDS011;7275;50.328;8.720;2023-10-19T14:50:53;17.13;;;13.47;;
14381;SDS011;7275;50.328;8.720;2023-10-19T14:53:25;16.60;;;13.57;;
14381;SDS011;7275;50.328;8.720;2023-10-19T14:55:54;16.83;;;13.73;;
14381;SDS011;7275;50.328;8.720;2023-10-19T14:58:22;16.93;;;13.17;;
14381;SDS011;7275;50.328;8.720;2023-10-19T15:00:51;17.17;;;14.20;;
14381;SDS011;7275;50.328;8.720;2023-10-19T15:03:21;18.33;;;13.73;;
14381;SDS011;7275;50.328;8.720;2023-10-19T15:05:51;16.97;;;13.53;;
14381;SDS011;7275;50.328;8.720;2023-10-19T15:08:19;17.80;;;14.43;;
14381;SDS011;7275;50.328;8.720;2023-10-19T15:10:48;20.97;;;14.77;;
14381;SDS011;7275;50.328;8.720;2023-10-19T15:13:15;19.37;;;15.20;;
14381;SDS011;7275;50.328;8.720;2023-10-19T15:15:43;17.83;;;14.77;;
14381;SDS011;7275;50.328;8.720;2023-10-19T15:18:10;20.07;;;15.20;;
14381;SDS011;7275;50.328;8.720;2023-10-19T15:20:38;17.57;;;13.80;;
14381;SDS011;7275;50.328;8.720;2023-10-19T15:23:06;17.77;;;14.03;;
14381;SDS011;7275;50.328;8.720;2023-10-19T15:25:34;19.07;;;15.13;;
14381;SDS011;7275;50.328;8.720;2023-10-19T15:28:05;18.40;;;15.00;;
14381;SDS011;7275;50.328;8.720;2023-10-19T15:30:34;19.17;;;15.53;;
14381;SDS011;7275;50.328;8.720;2023-10-19T15:33:02;19.47;;;16.03;;
14381;SDS011;7275;50.328;8.720;2023-10-19T15:35:30;19.03;;;15.53;;
14381;SDS011;7275;50.328;8.720;2023-10-19T15:38:01;23.43;;;17.13;;
14381;SDS011;7275;50.328;8.720;2023-10-19T15:40:28;20.97;;;16.40;;
14381;SDS011;7275;50.328;8.720;2023-10-19T15:42:56;22.07;;;17.17;;
14381;SDS011;7275;50.328;8.720;2023-10-19T15:45:27;22.63;;;17.27;;
14381;SDS011;7275;50.328;8.720;2023-10-19T15:47:54;19.87;;;16.80;;
14381;SDS011;7275;50.328;8.720;2023-10-19T15:50:23;20.27;;;16.40;;